sensor_id;sensor_type;location;lat;lon;timestamp;pressure;altitude;pressure_sealevel;temperature;humidity
51333;BME280;37417;48.118;11.734;2023-07-20T00:02:35;95221.44;;;21.08;67.93
51333;BME280;37417;48.118;11.734;2023-07-20T00:05:21;95234.97;;;21.01;69.70
51333;BME280;37417;48.118;11.734;2023-07-20T00:08:10;95231.75;;;20.99;69.56
51333;BME280;37417;48.118;11.734;2023-07-20T00:10:56;95223.00;;;20.99;69.46
51333;BME280;37417;48.118;11.734;2023-07-20T00:13:41;95214.25;;;20.98;68.64
51333;BME280;37417;48.118;11.734;2023-07-20T00:16:27;95219.59;;;20.88;69.16
51333;BME280;37417;48.118;11.734;2023-07-20T00:19:12;95225.94;;;20.82;69.14
51333;BME280;37417;48.118;11.734;2023-07-20T00:21:58;95224.31;;;20.61;70.72
51333;BME280;37417;48.118;11.734;2023-07-20T00:24:44;95222.75;;;20.54;70.72
51333;BME280;37417;48.118;11.734;2023-07-20T00:27:30;95224.81;;;20.42;72.27
51333;BME280;37417;48.118;11.734;2023-07-20T00:30:16;95226.09;;;20.35;72.03
51333;BME280;37417;48.118;11.734;2023-07-20T00:33:01;95230.91;;;20.38;72.81
51333;BME280;37417;48.118;11.734;2023-07-20T00:35:47;95240.72;;;20.42;72.73
51333;BME280;37417;48.118;11.734;2023-07-20T00:38:33;95233.88;;;20.57;72.06
51333;BME280;37417;48.118;11.734;2023-07-20T00:41:18;95234.91;;;20.45;71.58
51333;BME280;37417;48.118;11.734;2023-07-20T00:44:04;95238.09;;;20.47;71.48
51333;BME280;37417;48.118;11.734;2023-07-20T00:46:51;95234.66;;;20.52;70.92
51333;BME280;37417;48.118;11.734;2023-07-20T00:49:37;95242.88;;;20.55;70.94
51333;BME280;37417;48.118;11.734;2023-07-20T00:52:25;95253.50;;;20.55;71.45
51333;BME280;37417;48.118;11.734;2023-07-20T00:55:11;95244.47;;;20.67;70.28
51333;BME280;37417;48.118;11.734;2023-07-20T00:57:57;95253.78;;;20.69;70.15
51333;BME280;37417;48.118;11.734;2023-07-20T01:00:44;95244.47;;;20.67;69.85
51333;BME280;37417;48.118;11.734;2023-07-20T01:03:29;95240.25;;;20.76;70.89
51333;BME280;37417;48.118;11.734;2023-07-20T01:06:27;95237.06;;;20.59;72.08
51333;BME280;37417;48.118;11.734;2023-07-20T01:09:45;95237.31;;;20.72;70.89
51333;BME280;37417;48.118;11.734;2023-07-20T01:12:46;95249.78;;;20.77;70.39
51333;BME280;37417;48.118;11.734;2023-07-20T01:15:35;95259.59;;;20.76;69.88
51333;BME280;37417;48.118;11.734;2023-07-20T01:18:21;95250.84;;;20.71;69.85
51333;BME280;37417;48.118;11.734;2023-07-20T01:21:09;95242.63;;;20.93;69.60
51333;BME280;37417;48.118;11.734;2023-07-20T01:24:39;95241.06;;;20.76;70.12
51333;BME280;37417;48.118;11.734;2023-07-20T01:31:14;95238.91;;;20.63;70.93
51333;BME280;37417;48.118;11.734;2023-07-20T01:34:02;95237.88;;;20.74;71.16
51333;BME280;37417;48.118;11.734;2023-07-20T01:36:50;95240.25;;;20.71;71.18
51333;BME280;37417;48.118;11.734;2023-07-20T01:39:38;95237.59;;;20.76;71.53
51333;BME280;37417;48.118;11.734;2023-07-20T01:42:24;95229.66;;;20.71;72.13
51333;BME280;37417;48.118;11.734;2023-07-20T01:45:10;95240.72;;;20.47;73.56
51333;BME280;37417;48.118;11.734;2023-07-20T01:47:56;95243.44;;;20.63;73.10
51333;BME280;37417;48.118;11.734;2023-07-20T01:50:42;95244.16;;;20.43;74.42
51333;BME280;37417;48.118;11.734;2023-07-20T01:53:27;95239.19;;;20.62;73.17
51333;BME280;37417;48.118;11.734;2023-07-20T01:56:13;95242.09;;;20.65;72.53
51333;BME280;37417;48.118;11.734;2023-07-20T01:58:59;95242.13;;;20.75;71.75
51333;BME280;37417;48.118;11.734;2023-07-20T02:01:44;95239.19;;;20.77;70.52
51333;BME280;37417;48.118;11.734;2023-07-20T02:04:30;95236.00;;;20.70;69.49
51333;BME280;37417;48.118;11.734;2023-07-20T02:07:16;95242.38;;;20.64;68.20
51333;BME280;37417;48.118;11.734;2023-07-20T02:10:01;95251.63;;;20.56;64.22
51333;BME280;37417;48.118;11.734;2023-07-20T02:12:47;95242.38;;;20.84;61.76
51333;BME280;37417;48.118;11.734;2023-07-20T02:15:33;95245.56;;;20.81;62.40
51333;BME280;37417;48.118;11.734;2023-07-20T02:18:19;95251.06;;;20.54;59.93
51333;BME280;37417;48.118;11.734;2023-07-20T02:21:05;95239.44;;;20.86;58.70
51333;BME280;37417;48.118;11.734;2023-07-20T02:23:51;95254.56;;;20.75;58.49
51333;BME280;37417;48.118;11.734;2023-07-20T02:26:37;95252.44;;;20.72;59.83
51333;BME280;37417;48.118;11.734;2023-07-20T02:29:22;95260.91;;;20.59;62.99
51333;BME280;37417;48.118;11.734;2023-07-20T02:32:08;95244.22;;;20.68;60.78
51333;BME280;37417;48.118;11.734;2023-07-20T02:34:57;95237.06;;;20.59;66.22
51333;BME280;37417;48.118;11.734;2023-07-20T02:37:44;95249.41;;;20.33;71.96
51333;BME280;37417;48.118;11.734;2023-07-20T02:40:30;95269.78;;;20.17;76.57
51333;BME280;37417;48.118;11.734;2023-07-20T02:43:15;95254.13;;;20.15;78.95
51333;BME280;37417;48.118;11.734;2023-07-20T02:46:01;95238.94;;;19.85;82.45
51333;BME280;37417;48.118;11.734;2023-07-20T02:48:47;95251.84;;;19.77;84.21
51333;BME280;37417;48.118;11.734;2023-07-20T02:51:32;95253.09;;;19.64;89.03
51333;BME280;37417;48.118;11.734;2023-07-20T02:54:18;95254.06;;;19.47;89.40
51333;BME280;37417;48.118;11.734;2023-07-20T04:25:46;95420.22;;;16.21;100.00
51333;BME280;37417;48.118;11.734;2023-07-20T04:28:32;95418.13;;;16.35;100.00
51333;BME280;37417;48.118;11.734;2023-07-20T04:31:20;95428.09;;;16.33;100.00
51333;BME280;37417;48.118;11.734;2023-07-20T04:34:05;95419.50;;;16.49;100.00
51333;BME280;37417;48.118;11.734;2023-07-20T04:36:51;95383.56;;;16.83;100.00
51333;BME280;37417;48.118;11.734;2023-07-20T04:39:37;95377.84;;;17.03;100.00
51333;BME280;37417;48.118;11.734;2023-07-20T04:42:22;95370.53;;;17.22;100.00
51333;BME280;37417;48.118;11.734;2023-07-20T04:45:08;95364.63;;;17.31;100.00
51333;BME280;37417;48.118;11.734;2023-07-20T04:47:54;95367.34;;;17.37;100.00
51333;BME280;37417;48.118;11.734;2023-07-20T04:50:44;95364.78;;;17.42;100.00
51333;BME280;37417;48.118;11.734;2023-07-20T04:53:30;95362.16;;;17.58;100.00
51333;BME280;37417;48.118;11.734;2023-07-20T04:56:16;95358.16;;;17.56;100.00
51333;BME280;37417;48.118;11.734;2023-07-20T04:59:02;95355.06;;;17.59;100.00
51333;BME280;37417;48.118;11.734;2023-07-20T05:01:48;95359.38;;;17.65;100.00
51333;BME280;37417;48.118;11.734;2023-07-20T05:04:33;95354.38;;;17.69;100.00
51333;BME280;37417;48.118;11.734;2023-07-20T05:07:20;95362.63;;;17.89;100.00
51333;BME280;37417;48.118;11.734;2023-07-20T05:10:06;95356.69;;;17.99;100.00
51333;BME280;37417;48.118;11.734;2023-07-20T05:12:52;95366.81;;;17.85;100.00
51333;BME280;37417;48.118;11.734;2023-07-20T05:15:37;95376.47;;;17.79;100.00
51333;BME280;37417;48.118;11.734;2023-07-20T05:18:23;95370.88;;;17.76;100.00
51333;BME280;37417;48.118;11.734;2023-07-20T05:21:09;95366.84;;;17.90;100.00
51333;BME280;37417;48.118;11.734;2023-07-20T05:23:54;95369.09;;;17.98;100.00
51333;BME280;37417;48.118;11.734;2023-07-20T05:26:40;95366.81;;;18.07;100.00
51333;BME280;37417;48.118;11.734;2023-07-20T05:29:26;95365.88;;;17.96;100.00
51333;BME280;37417;48.118;11.734;2023-07-20T05:32:12;95378.78;;;17.93;100.00
51333;BME280;37417;48.118;11.734;2023-07-20T05:34:58;95372.28;;;18.00;100.00
51333;BME280;37417;48.118;11.734;2023-07-20T05:37:45;95371.63;;;18.10;100.00
51333;BME280;37417;48.118;11.734;2023-07-20T05:40:31;95369.53;;;18.12;100.00
51333;BME280;37417;48.118;11.734;2023-07-20T05:43:16;95369.09;;;18.20;100.00
51333;BME280;37417;48.118;11.734;2023-07-20T05:46:02;95369.84;;;18.37;100.00
51333;BME280;37417;48.118;11.734;2023-07-20T05:48:48;95368.81;;;18.17;100.00
51333;BME280;37417;48.118;11.734;2023-07-20T05:51:34;95378.16;;;18.24;100.00
51333;BME280;37417;48.118;11.734;2023-07-20T05:54:20;95376.88;;;18.49;100.00
51333;BME280;37417;48.118;11.734;2023-07-20T05:57:05;95368.44;;;18.52;100.00
51333;BME280;37417;48.118;11.734;2023-07-20T05:59:51;95367.00;;;18.66;100.00
51333;BME280;37417;48.118;11.734;2023-07-20T06:02:37;95366.91;;;19.05;100.00
51333;BME280;37417;48.118;11.734;2023-07-20T06:05:22;95366.00;;;18.67;100.00
51333;BME280;37417;48.118;11.734;2023-07-20T06:08:09;95367.44;;;18.80;100.00
51333;BME280;37417;48.118;11.734;2023-07-20T06:10:54;95367.22;;;18.81;100.00
51333;BME280;37417;48.118;11.734;2023-07-20T06:13:40;95369.22;;;18.96;100.00
51333;BME280;37417;48.118;11.734;2023-07-20T06:16:26;95367.81;;;18.88;100.00
51333;BME280;37417;48.118;11.734;2023-07-20T06:19:11;95378.38;;;18.88;100.00
51333;BME280;37417;48.118;11.734;2023-07-20T06:21:57;95371.19;;;19.43;100.00
51333;BME280;37417;48.118;11.734;2023-07-20T06:24:43;95373.81;;;19.65;100.00
51333;BME280;37417;48.118;11.734;2023-07-20T06:27:28;95356.03;;;19.60;100.00
51333;BME280;37417;48.118;11.734;2023-07-20T06:30:14;95356.66;;;19.40;88.90
51333;BME280;37417;48.118;11.734;2023-07-20T06:33:00;95364.41;;;19.84;77.33
51333;BME280;37417;48.118;11.734;2023-07-20T06:35:45;95360.09;;;19.73;77.14
51333;BME280;37417;48.118;11.734;2023-07-20T06:38:31;95372.00;;;19.43;96.13
51333;BME280;37417;48.118;11.734;2023-07-20T06:41:17;95376.53;;;19.48;100.00
51333;BME280;37417;48.118;11.734;2023-07-20T06:44:03;95369.91;;;19.45;100.00
51333;BME280;37417;48.118;11.734;2023-07-20T06:46:50;95369.00;;;19.62;100.00
51333;BME280;37417;48.118;11.734;2023-07-20T06:49:36;95366.28;;;19.57;93.72
51333;BME280;37417;48.118;11.734;2023-07-20T06:52:21;95361.06;;;19.62;89.00
51333;BME280;37417;48.118;11.734;2023-07-20T06:55:08;95365.41;;;19.78;88.92
51333;BME280;37417;48.118;11.734;2023-07-20T06:57:53;95370.84;;;19.61;86.16
51333;BME280;37417;48.118;11.734;2023-07-20T07:00:39;95366.25;;;19.84;86.14
51333;BME280;37417;48.118;11.734;2023-07-20T07:03:25;95364.16;;;20.38;84.65
51333;BME280;37417;48.118;11.734;2023-07-20T07:06:10;95362.03;;;21.28;84.63
51333;BME280;37417;48.118;11.734;2023-07-20T07:08:56;95372.06;;;21.01;80.74
51333;BME280;37417;48.118;11.734;2023-07-20T07:11:42;95359.66;;;21.78;84.65
51333;BME280;37417;48.118;11.734;2023-07-20T07:14:27;95353.50;;;22.78;64.87
51333;BME280;37417;48.118;11.734;2023-07-20T07:17:13;95355.88;;;23.29;64.12
51333;BME280;37417;48.118;11.734;2023-07-20T07:19:59;95361.56;;;22.57;64.63
51333;BME280;37417;48.118;11.734;2023-07-20T07:22:45;95360.34;;;20.76;67.15
51333;BME280;37417;48.118;11.734;2023-07-20T07:25:31;95354.75;;;20.63;71.13
51333;BME280;37417;48.118;11.734;2023-07-20T07:28:17;95363.38;;;21.46;64.32
51333;BME280;37417;48.118;11.734;2023-07-20T07:31:06;95353.22;;;21.94;59.17
51333;BME280;37417;48.118;11.734;2023-07-20T07:33:52;95359.41;;;22.64;58.02
51333;BME280;37417;48.118;11.734;2023-07-20T07:36:38;95355.59;;;24.22;54.33
51333;BME280;37417;48.118;11.734;2023-07-20T07:39:23;95359.00;;;25.32;50.51
51333;BME280;37417;48.118;11.734;2023-07-20T07:42:09;95364.06;;;24.72;52.07
51333;BME280;37417;48.118;11.734;2023-07-20T07:44:55;95360.75;;;24.38;50.49
51333;BME280;37417;48.118;11.734;2023-07-20T07:47:41;95353.84;;;24.61;50.84
51333;BME280;37417;48.118;11.734;2023-07-20T07:50:26;95356.53;;;23.05;52.68
51333;BME280;37417;48.118;11.734;2023-07-20T07:53:12;95359.47;;;23.43;51.53
51333;BME280;37417;48.118;11.734;2023-07-20T07:55:58;95355.25;;;23.03;53.42
51333;BME280;37417;48.118;11.734;2023-07-20T07:58:44;95364.84;;;20.86;58.51
51333;BME280;37417;48.118;11.734;2023-07-20T08:01:29;95370.22;;;21.12;63.15
51333;BME280;37417;48.118;11.734;2023-07-20T08:04:15;95356.41;;;22.06;53.03
51333;BME280;37417;48.118;11.734;2023-07-20T08:07:03;95355.41;;;21.61;51.20
51333;BME280;37417;48.118;11.734;2023-07-20T08:09:49;95359.41;;;21.59;50.44
51333;BME280;37417;48.118;11.734;2023-07-20T08:12:35;95362.56;;;21.61;49.96
51333;BME280;37417;48.118;11.734;2023-07-20T08:15:21;95362.03;;;21.84;49.65
51333;BME280;37417;48.118;11.734;2023-07-20T08:18:06;95368.69;;;21.61;49.64
51333;BME280;37417;48.118;11.734;2023-07-20T08:20:53;95372.47;;;22.56;48.58
51333;BME280;37417;48.118;11.734;2023-07-20T08:23:39;95365.97;;;22.02;48.38
51333;BME280;37417;48.118;11.734;2023-07-20T08:26:25;95359.97;;;22.56;48.67
51333;BME280;37417;48.118;11.734;2023-07-20T08:29:11;95362.03;;;22.75;48.29
51333;BME280;37417;48.118;11.734;2023-07-20T08:31:57;95363.66;;;22.65;46.62
51333;BME280;37417;48.118;11.734;2023-07-20T08:34:42;95359.28;;;22.95;46.71
51333;BME280;37417;48.118;11.734;2023-07-20T08:37:28;95368.94;;;22.70;46.81
51333;BME280;37417;48.118;11.734;2023-07-20T08:40:14;95357.59;;;23.09;46.15
51333;BME280;37417;48.118;11.734;2023-07-20T08:43:00;95363.75;;;22.40;47.41
51333;BME280;37417;48.118;11.734;2023-07-20T08:45:46;95372.38;;;21.96;48.41
51333;BME280;37417;48.118;11.734;2023-07-20T08:48:34;95365.47;;;22.10;47.75
51333;BME280;37417;48.118;11.734;2023-07-20T08:51:20;95361.53;;;22.67;48.10
51333;BME280;37417;48.118;11.734;2023-07-20T08:54:08;95360.00;;;23.45;47.66
51333;BME280;37417;48.118;11.734;2023-07-20T08:56:56;95360.88;;;23.69;49.32
51333;BME280;37417;48.118;11.734;2023-07-20T08:59:43;95346.38;;;25.38;44.43
51333;BME280;37417;48.118;11.734;2023-07-20T09:02:29;95350.78;;;25.61;44.96
51333;BME280;37417;48.118;11.734;2023-07-20T09:05:18;95359.50;;;24.54;45.58
51333;BME280;37417;48.118;11.734;2023-07-20T09:08:03;95372.97;;;22.68;47.16
51333;BME280;37417;48.118;11.734;2023-07-20T09:10:49;95355.56;;;23.30;47.69
51333;BME280;37417;48.118;11.734;2023-07-20T09:13:35;95358.69;;;23.42;47.01
51333;BME280;37417;48.118;11.734;2023-07-20T09:16:21;95362.47;;;23.31;47.37
51333;BME280;37417;48.118;11.734;2023-07-20T09:19:07;95357.22;;;23.60;45.69
51333;BME280;37417;48.118;11.734;2023-07-20T09:21:52;95351.75;;;24.04;44.20
51333;BME280;37417;48.118;11.734;2023-07-20T09:24:38;95348.97;;;23.62;45.43
51333;BME280;37417;48.118;11.734;2023-07-20T09:27:38;95356.50;;;22.61;46.97
51333;BME280;37417;48.118;11.734;2023-07-20T09:30:25;95338.94;;;23.14;46.95
51333;BME280;37417;48.118;11.734;2023-07-20T09:33:18;95340.81;;;24.35;44.37
51333;BME280;37417;48.118;11.734;2023-07-20T09:36:05;95340.59;;;24.93;43.58
51333;BME280;37417;48.118;11.734;2023-07-20T09:38:51;95335.25;;;25.31;41.42
51333;BME280;37417;48.118;11.734;2023-07-20T09:41:40;95334.13;;;23.85;43.54
51333;BME280;37417;48.118;11.734;2023-07-20T09:44:29;95347.22;;;24.05;43.60
51333;BME280;37417;48.118;11.734;2023-07-20T09:47:22;95350.13;;;23.11;46.32
51333;BME280;37417;48.118;11.734;2023-07-20T09:50:08;95346.56;;;24.18;44.35
51333;BME280;37417;48.118;11.734;2023-07-20T09:52:56;95350.75;;;23.71;45.50
51333;BME280;37417;48.118;11.734;2023-07-20T09:55:44;95340.19;;;23.90;43.86
51333;BME280;37417;48.118;11.734;2023-07-20T09:58:31;95330.94;;;25.16;41.94
51333;BME280;37417;48.118;11.734;2023-07-20T10:01:20;95337.16;;;24.50;40.87
51333;BME280;37417;48.118;11.734;2023-07-20T10:04:08;95336.06;;;25.31;39.72
51333;BME280;37417;48.118;11.734;2023-07-20T10:06:55;95334.16;;;25.51;41.61
51333;BME280;37417;48.118;11.734;2023-07-20T10:09:45;95332.06;;;25.80;40.15
51333;BME280;37417;48.118;11.734;2023-07-20T10:12:31;95338.91;;;24.12;42.00
51333;BME280;37417;48.118;11.734;2023-07-20T10:15:24;95332.50;;;25.17;41.21
51333;BME280;37417;48.118;11.734;2023-07-20T10:18:26;95332.47;;;24.42;40.45
51333;BME280;37417;48.118;11.734;2023-07-20T10:21:17;95324.34;;;25.92;39.91
51333;BME280;37417;48.118;11.734;2023-07-20T10:24:03;95317.50;;;26.83;37.85
51333;BME280;37417;48.118;11.734;2023-07-20T10:26:51;95315.44;;;28.23;37.24
51333;BME280;37417;48.118;11.734;2023-07-20T10:29:37;95309.72;;;27.09;36.41
51333;BME280;37417;48.118;11.734;2023-07-20T10:32:23;95316.31;;;28.41;35.94
51333;BME280;37417;48.118;11.734;2023-07-20T10:35:16;95323.13;;;25.01;41.17
51333;BME280;37417;48.118;11.734;2023-07-20T10:38:03;95328.38;;;24.68;41.82
51333;BME280;37417;48.118;11.734;2023-07-20T10:40:55;95316.59;;;25.12;41.27
51333;BME280;37417;48.118;11.734;2023-07-20T10:43:45;95308.84;;;26.22;39.67
51333;BME280;37417;48.118;11.734;2023-07-20T10:49:26;95307.63;;;26.01;40.82
51333;BME280;37417;48.118;11.734;2023-07-20T10:52:12;95301.56;;;29.30;36.94
51333;BME280;37417;48.118;11.734;2023-07-20T10:55:10;95300.84;;;26.72;36.70
51333;BME280;37417;48.118;11.734;2023-07-20T10:58:13;95317.88;;;24.96;41.26
51333;BME280;37417;48.118;11.734;2023-07-20T11:01:01;95317.63;;;24.30;42.78
51333;BME280;37417;48.118;11.734;2023-07-20T11:03:49;95304.47;;;27.48;39.52
51333;BME280;37417;48.118;11.734;2023-07-20T11:06:42;95296.91;;;28.44;35.18
51333;BME280;37417;48.118;11.734;2023-07-20T11:09:34;95301.22;;;26.15;38.14
51333;BME280;37417;48.118;11.734;2023-07-20T11:12:20;95301.69;;;27.53;37.61
51333;BME280;37417;48.118;11.734;2023-07-20T11:15:06;95303.94;;;28.22;36.45
51333;BME280;37417;48.118;11.734;2023-07-20T11:17:52;95283.44;;;29.18;35.77
51333;BME280;37417;48.118;11.734;2023-07-20T11:20:50;95278.44;;;31.86;30.94
51333;BME280;37417;48.118;11.734;2023-07-20T11:23:38;95280.69;;;30.08;33.25
51333;BME280;37417;48.118;11.734;2023-07-20T11:26:24;95281.03;;;28.73;34.47
51333;BME280;37417;48.118;11.734;2023-07-20T11:29:10;95283.66;;;27.23;38.17
51333;BME280;37417;48.118;11.734;2023-07-20T11:31:57;95278.56;;;27.66;36.67
51333;BME280;37417;48.118;11.734;2023-07-20T11:34:47;95279.34;;;26.77;38.37
51333;BME280;37417;48.118;11.734;2023-07-20T11:37:33;95278.81;;;28.75;35.78
51333;BME280;37417;48.118;11.734;2023-07-20T11:40:19;95268.53;;;29.93;35.23
51333;BME280;37417;48.118;11.734;2023-07-20T11:43:04;95277.41;;;28.21;36.02
51333;BME280;37417;48.118;11.734;2023-07-20T11:45:50;95279.69;;;26.62;37.98
51333;BME280;37417;48.118;11.734;2023-07-20T11:48:36;95269.72;;;26.12;38.88
51333;BME280;37417;48.118;11.734;2023-07-20T11:51:22;95275.94;;;26.35;41.03
51333;BME280;37417;48.118;11.734;2023-07-20T11:54:08;95270.59;;;27.44;37.87
51333;BME280;37417;48.118;11.734;2023-07-20T11:56:54;95262.91;;;26.70;39.83
51333;BME280;37417;48.118;11.734;2023-07-20T12:00:02;95263.25;;;25.72;40.75
51333;BME280;37417;48.118;11.734;2023-07-20T12:02:54;95262.69;;;26.44;38.82
51333;BME280;37417;48.118;11.734;2023-07-20T12:05:40;95242.81;;;26.59;38.24
51333;BME280;37417;48.118;11.734;2023-07-20T12:08:26;95231.22;;;29.92;34.31
51333;BME280;37417;48.118;11.734;2023-07-20T12:11:11;95242.25;;;29.99;33.61
51333;BME280;37417;48.118;11.734;2023-07-20T12:13:58;95236.72;;;27.79;35.24
51333;BME280;37417;48.118;11.734;2023-07-20T12:16:44;95232.25;;;27.43;36.50
51333;BME280;37417;48.118;11.734;2023-07-20T12:19:29;95237.91;;;28.61;35.13
51333;BME280;37417;48.118;11.734;2023-07-20T12:22:15;95236.13;;;27.29;35.37
51333;BME280;37417;48.118;11.734;2023-07-20T12:25:05;95228.59;;;29.10;34.20
51333;BME280;37417;48.118;11.734;2023-07-20T12:27:51;95223.56;;;29.00;33.37
51333;BME280;37417;48.118;11.734;2023-07-20T12:30:38;95230.28;;;28.37;34.53
51333;BME280;37417;48.118;11.734;2023-07-20T12:33:24;95222.00;;;27.37;35.14
51333;BME280;37417;48.118;11.734;2023-07-20T12:36:10;95220.38;;;28.90;34.01
51333;BME280;37417;48.118;11.734;2023-07-20T12:38:56;95211.22;;;31.02;30.99
51333;BME280;37417;48.118;11.734;2023-07-20T12:41:41;95217.63;;;28.29;33.45
51333;BME280;37417;48.118;11.734;2023-07-20T12:44:27;95210.91;;;28.66;34.03
51333;BME280;37417;48.118;11.734;2023-07-20T12:47:13;95211.38;;;29.11;33.83
51333;BME280;37417;48.118;11.734;2023-07-20T12:49:59;95207.41;;;26.76;36.43
51333;BME280;37417;48.118;11.734;2023-07-20T12:52:45;95207.41;;;25.43;39.06
51333;BME280;37417;48.118;11.734;2023-07-20T12:55:31;95207.00;;;26.46;38.53
51333;BME280;37417;48.118;11.734;2023-07-20T12:58:17;95214.47;;;26.94;38.53
51333;BME280;37417;48.118;11.734;2023-07-20T13:01:03;95198.47;;;29.43;34.79
51333;BME280;37417;48.118;11.734;2023-07-20T13:03:49;95196.34;;;27.75;35.92
51333;BME280;37417;48.118;11.734;2023-07-20T13:06:35;95193.63;;;28.15;34.86
51333;BME280;37417;48.118;11.734;2023-07-20T13:09:21;95201.19;;;27.65;34.34
51333;BME280;37417;48.118;11.734;2023-07-20T13:12:07;95200.66;;;27.85;35.45
51333;BME280;37417;48.118;11.734;2023-07-20T13:14:54;95194.09;;;29.85;33.42
51333;BME280;37417;48.118;11.734;2023-07-20T13:17:40;95206.41;;;28.10;36.12
51333;BME280;37417;48.118;11.734;2023-07-20T13:20:26;95183.25;;;28.66;33.25
51333;BME280;37417;48.118;11.734;2023-07-20T13:23:14;95181.91;;;31.01;31.99
51333;BME280;37417;48.118;11.734;2023-07-20T13:26:00;95189.84;;;28.25;34.34
51333;BME280;37417;48.118;11.734;2023-07-20T13:28:47;95185.81;;;29.05;35.36
51333;BME280;37417;48.118;11.734;2023-07-20T13:31:32;95182.78;;;28.64;35.33
51333;BME280;37417;48.118;11.734;2023-07-20T13:34:18;95173.28;;;30.03;32.89
51333;BME280;37417;48.118;11.734;2023-07-20T13:37:04;95184.13;;;26.98;37.18
51333;BME280;37417;48.118;11.734;2023-07-20T13:39:50;95187.75;;;25.94;37.53
51333;BME280;37417;48.118;11.734;2023-07-20T13:42:36;95178.34;;;28.33;36.65
51333;BME280;37417;48.118;11.734;2023-07-20T13:45:22;95178.88;;;26.93;36.49
51333;BME280;37417;48.118;11.734;2023-07-20T13:48:08;95181.25;;;26.36;37.90
51333;BME280;37417;48.118;11.734;2023-07-20T13:50:54;95169.03;;;27.25;37.53
51333;BME280;37417;48.118;11.734;2023-07-20T13:53:40;95170.03;;;27.38;38.10
51333;BME280;37417;48.118;11.734;2023-07-20T13:56:26;95168.47;;;27.76;36.35
51333;BME280;37417;48.118;11.734;2023-07-20T13:59:12;95151.38;;;30.13;33.81
51333;BME280;37417;48.118;11.734;2023-07-20T14:01:58;95153.13;;;30.81;33.28
51333;BME280;37417;48.118;11.734;2023-07-20T14:04:43;95148.22;;;28.71;34.23
51333;BME280;37417;48.118;11.734;2023-07-20T14:07:29;95155.84;;;27.06;36.51
51333;BME280;37417;48.118;11.734;2023-07-20T14:10:15;95149.63;;;27.28;37.38
51333;BME280;37417;48.118;11.734;2023-07-20T14:13:01;95134.56;;;29.66;32.89
51333;BME280;37417;48.118;11.734;2023-07-20T14:15:46;95138.88;;;30.17;32.25
51333;BME280;37417;48.118;11.734;2023-07-20T14:18:32;95134.38;;;28.34;34.60
51333;BME280;37417;48.118;11.734;2023-07-20T14:21:21;95127.50;;;30.54;32.33
51333;BME280;37417;48.118;11.734;2023-07-20T14:24:07;95125.78;;;31.85;29.19
51333;BME280;37417;48.118;11.734;2023-07-20T14:26:53;95135.56;;;31.53;30.64
51333;BME280;37417;48.118;11.734;2023-07-20T14:29:40;95126.72;;;30.74;31.94
51333;BME280;37417;48.118;11.734;2023-07-20T14:32:25;95117.88;;;34.08;27.47
51333;BME280;37417;48.118;11.734;2023-07-20T14:35:11;95113.16;;;34.59;26.88
51333;BME280;37417;48.118;11.734;2023-07-20T14:37:57;95109.75;;;32.69;28.22
51333;BME280;37417;48.118;11.734;2023-07-20T14:40:42;95116.41;;;32.19;28.31
51333;BME280;37417;48.118;11.734;2023-07-20T14:43:28;95116.75;;;28.97;32.20
51333;BME280;37417;48.118;11.734;2023-07-20T14:46:15;95106.34;;;31.92;28.56
51333;BME280;37417;48.118;11.734;2023-07-20T14:49:00;95110.69;;;29.26;30.75
51333;BME280;37417;48.118;11.734;2023-07-20T14:51:48;95096.88;;;31.73;29.47
51333;BME280;37417;48.118;11.734;2023-07-20T14:54:35;95106.03;;;28.97;32.21
51333;BME280;37417;48.118;11.734;2023-07-20T14:57:21;95103.72;;;32.60;28.93
51333;BME280;37417;48.118;11.734;2023-07-20T15:00:09;95100.63;;;35.13;25.71
51333;BME280;37417;48.118;11.734;2023-07-20T15:03:00;95091.22;;;33.59;26.73
51333;BME280;37417;48.118;11.734;2023-07-20T15:05:45;95084.53;;;35.46;25.37
51333;BME280;37417;48.118;11.734;2023-07-20T15:08:31;95082.78;;;35.12;24.31
51333;BME280;37417;48.118;11.734;2023-07-20T15:11:17;95085.63;;;36.51;24.80
51333;BME280;37417;48.118;11.734;2023-07-20T15:14:02;95085.91;;;35.14;24.32
51333;BME280;37417;48.118;11.734;2023-07-20T15:16:48;95093.09;;;30.59;28.84
51333;BME280;37417;48.118;11.734;2023-07-20T15:19:34;95083.97;;;32.31;28.94
51333;BME280;37417;48.118;11.734;2023-07-20T15:22:21;95079.56;;;34.44;27.25
51333;BME280;37417;48.118;11.734;2023-07-20T15:25:08;95076.94;;;32.27;28.52
51333;BME280;37417;48.118;11.734;2023-07-20T15:27:56;95074.34;;;30.84;29.09
51333;BME280;37417;48.118;11.734;2023-07-20T15:30:41;95075.31;;;29.54;31.57
51333;BME280;37417;48.118;11.734;2023-07-20T15:33:27;95080.63;;;29.92;30.57
51333;BME280;37417;48.118;11.734;2023-07-20T15:36:13;95081.13;;;29.64;31.10
51333;BME280;37417;48.118;11.734;2023-07-20T15:38:58;95074.31;;;29.88;30.73
51333;BME280;37417;48.118;11.734;2023-07-20T15:41:44;95075.16;;;30.96;28.85
51333;BME280;37417;48.118;11.734;2023-07-20T15:44:30;95068.97;;;30.30;30.68
51333;BME280;37417;48.118;11.734;2023-07-20T15:47:16;95064.34;;;31.78;27.89
51333;BME280;37417;48.118;11.734;2023-07-20T15:50:02;95059.47;;;33.08;27.17
51333;BME280;37417;48.118;11.734;2023-07-20T15:52:48;95055.88;;;34.80;25.15
51333;BME280;37417;48.118;11.734;2023-07-20T15:55:34;95055.88;;;34.41;25.32
51333;BME280;37417;48.118;11.734;2023-07-20T15:58:20;95065.84;;;34.95;24.91
51333;BME280;37417;48.118;11.734;2023-07-20T16:01:05;95060.06;;;32.58;27.77
51333;BME280;37417;48.118;11.734;2023-07-20T16:03:51;95063.22;;;30.19;29.79
51333;BME280;37417;48.118;11.734;2023-07-20T16:06:37;95056.31;;;30.63;28.83